Wetterdaten: Woche 15.10.18 - 21.10.18 (KW42)
Datum Zeit Temp. A. Feuchte A. Luftdruck Regen Wind Richtung Taupunkt Windchill Windben
15.10.2018 00:00 8,4 C 74 % 1020,8 hPa 0,0 l/m 0,0 km/h N 4,1 C 8,4 C 0,0 km/h
15.10.2018 01:00 7,5 C 78 % 1021,1 hPa 0,0 l/m 0,0 km/h N 3,9 C 7,5 C 0,0 km/h
15.10.2018 02:00 6,9 C 80 % 1021,3 hPa 0,0 l/m 0,0 km/h N 3,6 C 6,9 C 0,0 km/h
15.10.2018 03:00 6,4 C 80 % 1021,2 hPa 0,0 l/m 0,0 km/h N 3,3 C 6,4 C 0,0 km/h
15.10.2018 04:00 6,8 C 81 % 1021,2 hPa 0,0 l/m 0,0 km/h N 3,8 C 6,8 C 0,8 km/h
15.10.2018 05:00 7,6 C 80 % 1021,3 hPa 0,0 l/m 0,1 km/h N 4,4 C 7,6 C 2,4 km/h
15.10.2018 06:00 9,1 C 75 % 1021,1 hPa 0,0 l/m 0,1 km/h N 4,8 C 9,1 C 3,6 km/h
15.10.2018 07:00 9,4 C 71 % 1020,9 hPa 0,0 l/m 0,6 km/h N 4,3 C 9,4 C 4,8 km/h
15.10.2018 08:00 10,1 C 67 % 1021,3 hPa 0,0 l/m 0,7 km/h N 4,2 C 10,1 C 5,2 km/h
15.10.2018 09:00 11,3 C 64 % 1021,7 hPa 0,0 l/m 0,9 km/h N 4,7 C 11,3 C 6,4 km/h
15.10.2018 10:00 13,5 C 59 % 1021,7 hPa 0,0 l/m 0,8 km/h N 5,5 C 13,5 C 6,4 km/h
15.10.2018 11:00 17,0 C 45 % 1021,2 hPa 0,0 l/m 2,5 km/h N 5,1 C 17,0 C 8,0 km/h
15.10.2018 12:00 18,3 C 44 % 1020,8 hPa 0,0 l/m 2,4 km/h N 5,9 C 18,3 C 9,7 km/h
15.10.2018 13:00 18,7 C 45 % 1020,5 hPa 0,0 l/m 2,8 km/h N 6,6 C 18,7 C 10,9 km/h
15.10.2018 14:00 18,0 C 47 % 1020,1 hPa 0,0 l/m 2,8 km/h N 6,4 C 18,0 C 8,4 km/h
15.10.2018 15:00 18,2 C 48 % 1020,0 hPa 0,0 l/m 3,8 km/h N 6,9 C 18,2 C 10,9 km/h
15.10.2018 16:00 17,8 C 49 % 1019,9 hPa 0,0 l/m 2,5 km/h N 7,0 C 17,8 C 10,1 km/h
15.10.2018 17:00 17,3 C 52 % 1019,7 hPa 0,0 l/m 2,2 km/h N 7,3 C 17,3 C 10,1 km/h
15.10.2018 18:00 16,5 C 55 % 1019,8 hPa 0,0 l/m 0,8 km/h N 7,3 C 16,5 C 6,0 km/h
15.10.2018 19:00 15,4 C 58 % 1019,9 hPa 0,0 l/m 0,1 km/h N 7,1 C 15,4 C 2,8 km/h
15.10.2018 20:00 14,1 C 61 % 1019,8 hPa 0,0 l/m 0,0 km/h N 6,7 C 14,1 C 0,4 km/h
15.10.2018 21:00 11,8 C 68 % 1020,0 hPa 0,0 l/m 0,0 km/h N 6,0 C 11,8 C 0,4 km/h
15.10.2018 22:00 10,7 C 74 % 1020,0 hPa 0,0 l/m 0,0 km/h N 6,2 C 10,7 C 0,0 km/h
15.10.2018 23:00 11,6 C 69 % 1019,7 hPa 0,0 l/m 0,1 km/h N 6,1 C 11,6 C 2,4 km/h
16.10.2018 00:00 13,3 C 62 % 1019,2 hPa 0,0 l/m 0,9 km/h N 6,2 C 13,3 C 4,0 km/h
16.10.2018 01:00 12,7 C 64 % 1019,1 hPa 0,0 l/m 0,0 km/h N 6,0 C 12,7 C 0,4 km/h
16.10.2018 02:00 11,2 C 69 % 1019,0 hPa 0,0 l/m 0,0 km/h N 5,6 C 11,2 C 1,2 km/h
16.10.2018 03:00 10,7 C 70 % 1018,7 hPa 0,0 l/m 0,0 km/h N 5,5 C 10,7 C 0,8 km/h
16.10.2018 04:00 9,9 C 73 % 1018,5 hPa 0,0 l/m 0,0 km/h N 5,3 C 9,9 C 0,8 km/h
16.10.2018 05:00 9,3 C 76 % 1018,6 hPa 0,0 l/m 0,0 km/h N 5,3 C 9,3 C 0,0 km/h
16.10.2018 06:00 9,4 C 77 % 1018,7 hPa 0,0 l/m 0,0 km/h N 5,6 C 9,4 C 0,4 km/h
16.10.2018 07:00 8,9 C 78 % 1019,1 hPa 0,0 l/m 0,0 km/h N 5,2 C 8,9 C 0,0 km/h
16.10.2018 08:00 8,6 C 80 % 1019,8 hPa 0,0 l/m 0,0 km/h N 5,3 C 8,6 C 0,0 km/h
16.10.2018 09:00 10,4 C 80 % 1020,2 hPa 0,0 l/m 0,0 km/h N 7,0 C 10,4 C 1,2 km/h
16.10.2018 10:00 13,4 C 73 % 1020,2 hPa 0,0 l/m 0,1 km/h N 8,7 C 13,4 C 2,8 km/h
16.10.2018 11:00 17,6 C 61 % 1019,9 hPa 0,0 l/m 0,3 km/h N 10,1 C 17,6 C 6,4 km/h
16.10.2018 12:00 19,8 C 58 % 1019,7 hPa 0,0 l/m 0,5 km/h N 11,1 C 19,8 C 8,0 km/h
16.10.2018 13:00 21,1 C 55 % 1019,4 hPa 0,0 l/m 0,8 km/h N 11,6 C 21,1 C 6,8 km/h
16.10.2018 14:00 21,2 C 55 % 1019,1 hPa 0,0 l/m 2,0 km/h N 11,7 C 21,2 C 10,1 km/h
16.10.2018 15:00 21,2 C 54 % 1019,1 hPa 0,0 l/m 1,5 km/h N 11,5 C 21,2 C 8,9 km/h
16.10.2018 16:00 20,2 C 55 % 1019,1 hPa 0,0 l/m 1,6 km/h N 10,8 C 20,2 C 6,4 km/h
16.10.2018 17:00 18,6 C 59 % 1019,3 hPa 0,0 l/m 1,1 km/h N 10,3 C 18,6 C 6,8 km/h
16.10.2018 18:00 16,7 C 64 % 1019,7 hPa 0,0 l/m 0,2 km/h N 9,8 C 16,7 C 3,6 km/h
16.10.2018 19:00 15,1 C 67 % 1020,0 hPa 0,0 l/m 0,1 km/h N 9,0 C 15,1 C 3,2 km/h
16.10.2018 20:00 13,7 C 72 % 1020,3 hPa 0,0 l/m 0,0 km/h N 8,7 C 13,7 C 0,8 km/h
16.10.2018 21:00 12,1 C 76 % 1020,5 hPa 0,0 l/m 0,0 km/h N 7,9 C 12,1 C 0,0 km/h
16.10.2018 22:00 10,9 C 79 % 1020,3 hPa 0,0 l/m 0,0 km/h N 7,4 C 10,9 C 0,4 km/h
16.10.2018 23:00 10,1 C 80 % 1020,0 hPa 0,0 l/m 0,0 km/h N 6,8 C 10,1 C 0,0 km/h
17.10.2018 00:00 9,1 C 81 % 1019,9 hPa 0,0 l/m 0,0 km/h N 5,9 C 9,1 C 0,0 km/h
17.10.2018 01:00 8,4 C 81 % 1019,8 hPa 0,0 l/m 0,0 km/h N 5,3 C 8,4 C 0,0 km/h
17.10.2018 02:00 7,9 C 81 % 1019,5 hPa 0,0 l/m 0,0 km/h N 4,8 C 7,9 C 0,0 km/h
17.10.2018 03:00 7,6 C 80 % 1019,5 hPa 0,0 l/m 0,0 km/h N 4,4 C 7,6 C 0,0 km/h
17.10.2018 04:00 7,2 C 80 % 1019,5 hPa 0,0 l/m 0,0 km/h N 3,9 C 7,2 C 0,0 km/h
17.10.2018 05:00 6,8 C 81 % 1019,6 hPa 0,0 l/m 0,0 km/h N 3,7 C 6,8 C 0,0 km/h
17.10.2018 06:00 6,9 C 81 % 1019,9 hPa 0,0 l/m 0,0 km/h N 3,9 C 6,9 C 0,4 km/h
17.10.2018 07:00 7,1 C 81 % 1020,3 hPa 0,0 l/m 0,0 km/h N 4,0 C 7,1 C 0,0 km/h
17.10.2018 08:00 7,9 C 81 % 1020,7 hPa 0,0 l/m 0,0 km/h N 4,9 C 7,9 C 0,0 km/h
17.10.2018 09:00 9,1 C 82 % 1020,9 hPa 0,0 l/m 0,0 km/h N 6,2 C 9,1 C 0,0 km/h
17.10.2018 10:00 10,4 C 82 % 1020,9 hPa 0,0 l/m 0,1 km/h N 7,5 C 10,4 C 1,6 km/h
17.10.2018 11:00 12,0 C 82 % 1020,9 hPa 0,0 l/m 0,2 km/h N 9,0 C 12,0 C 2,0 km/h
17.10.2018 12:00 14,1 C 81 % 1020,4 hPa 0,0 l/m 0,3 km/h N 10,8 C 14,1 C 4,4 km/h
17.10.2018 13:00 16,8 C 75 % 1019,7 hPa 0,0 l/m 0,5 km/h N 12,3 C 16,8 C 4,0 km/h
17.10.2018 14:00 17,4 C 72 % 1019,3 hPa 0,0 l/m 0,1 km/h N 12,4 C 17,4 C 4,0 km/h
17.10.2018 15:00 17,9 C 71 % 1018,9 hPa 0,0 l/m 0,0 km/h N 12,6 C 17,9 C 1,2 km/h
17.10.2018 16:00 17,8 C 72 % 1018,7 hPa 0,0 l/m 0,0 km/h N 12,6 C 17,8 C 0,0 km/h
17.10.2018 17:00 17,0 C 75 % 1018,7 hPa 0,0 l/m 0,0 km/h N 12,6 C 17,0 C 0,0 km/h
17.10.2018 18:00 16,2 C 78 % 1018,7 hPa 0,3 l/m 0,0 km/h N 12,3 C 16,2 C 0,0 km/h
17.10.2018 19:00 15,2 C 79 % 1018,8 hPa 0,0 l/m 0,0 km/h N 11,7 C 15,2 C 0,0 km/h
17.10.2018 20:00 14,8 C 80 % 1018,8 hPa 0,0 l/m 0,0 km/h N 11,3 C 14,8 C 0,0 km/h
17.10.2018 21:00 14,6 C 79 % 1018,9 hPa 0,0 l/m 0,0 km/h N 11,0 C 14,6 C 0,0 km/h
17.10.2018 22:00 14,4 C 80 % 1018,9 hPa 0,3 l/m 0,0 km/h N 11,0 C 14,4 C 0,4 km/h
17.10.2018 23:00 14,2 C 80 % 1018,7 hPa 0,3 l/m 0,0 km/h N 10,8 C 14,2 C 0,0 km/h
18.10.2018 00:00 14,0 C 80 % 1018,3 hPa 0,0 l/m 0,0 km/h N 10,6 C 14,0 C 0,0 km/h
18.10.2018 01:00 13,9 C 80 % 1018,0 hPa 0,0 l/m 0,0 km/h N 10,5 C 13,9 C 0,0 km/h
18.10.2018 02:00 13,3 C 80 % 1017,7 hPa 0,3 l/m 0,0 km/h N 9,9 C 13,3 C 0,0 km/h
18.10.2018 03:00 12,9 C 81 % 1017,5 hPa 0,0 l/m 0,0 km/h N 9,6 C 12,9 C 0,4 km/h
18.10.2018 04:00 12,9 C 81 % 1017,5 hPa 0,0 l/m 0,0 km/h N 9,7 C 12,9 C 0,4 km/h
18.10.2018 05:00 12,6 C 81 % 1017,5 hPa 0,0 l/m 0,0 km/h N 9,5 C 12,6 C 0,4 km/h
18.10.2018 06:00 11,7 C 81 % 1017,7 hPa 0,0 l/m 0,0 km/h N 8,5 C 11,7 C 0,8 km/h
18.10.2018 07:00 10,7 C 81 % 1017,9 hPa 0,0 l/m 0,0 km/h N 7,6 C 10,7 C 0,0 km/h
18.10.2018 08:00 10,3 C 81 % 1018,5 hPa 0,0 l/m 0,0 km/h N 7,2 C 10,3 C 0,4 km/h
18.10.2018 09:00 10,6 C 82 % 1018,9 hPa 0,0 l/m 0,0 km/h N 7,7 C 10,6 C 0,0 km/h
18.10.2018 10:00 11,8 C 82 % 1019,1 hPa 0,0 l/m 0,5 km/h N 8,8 C 11,8 C 4,0 km/h
18.10.2018 11:00 13,2 C 82 % 1018,8 hPa 0,0 l/m 0,0 km/h N 10,2 C 13,2 C 0,4 km/h
18.10.2018 12:00 15,2 C 82 % 1018,3 hPa 0,0 l/m 0,2 km/h N 12,0 C 15,2 C 3,2 km/h
18.10.2018 13:00 16,9 C 80 % 1017,8 hPa 0,0 l/m 0,0 km/h N 13,4 C 16,9 C 1,6 km/h
18.10.2018 14:00 18,3 C 76 % 1017,3 hPa 0,0 l/m 0,2 km/h N 13,8 C 18,3 C 4,4 km/h
18.10.2018 15:00 18,9 C 71 % 1017,3 hPa 0,0 l/m 0,4 km/h N 13,6 C 18,9 C 5,6 km/h
18.10.2018 16:00 18,5 C 72 % 1017,3 hPa 0,0 l/m 0,1 km/h N 13,3 C 18,5 C 2,8 km/h
18.10.2018 17:00 17,5 C 73 % 1017,3 hPa 0,0 l/m 0,0 km/h N 12,6 C 17,5 C 0,0 km/h
18.10.2018 18:00 15,5 C 76 % 1017,8 hPa 0,0 l/m 0,0 km/h N 11,3 C 15,5 C 0,0 km/h
18.10.2018 19:00 13,7 C 79 % 1018,4 hPa 0,0 l/m 0,0 km/h N 10,2 C 13,7 C 0,4 km/h
18.10.2018 20:00 12,6 C 80 % 1018,8 hPa 0,0 l/m 0,1 km/h N 9,2 C 12,6 C 2,0 km/h
18.10.2018 21:00 11,8 C 80 % 1019,2 hPa 0,0 l/m 0,0 km/h N 8,5 C 11,8 C 0,0 km/h
18.10.2018 22:00 10,8 C 80 % 1019,5 hPa 0,0 l/m 0,0 km/h N 7,5 C 10,8 C 0,0 km/h
18.10.2018 23:00 9,9 C 80 % 1019,6 hPa 0,0 l/m 0,0 km/h N 6,6 C 9,9 C 0,0 km/h
19.10.2018 00:00 9,4 C 80 % 1019,8 hPa 0,0 l/m 0,0 km/h N 6,1 C 9,4 C 0,0 km/h
19.10.2018 01:00 9,1 C 81 % 1019,7 hPa 0,0 l/m 0,0 km/h N 5,9 C 9,1 C 0,0 km/h
19.10.2018 02:00 9,0 C 81 % 1019,6 hPa 0,0 l/m 0,0 km/h N 5,9 C 9,0 C 0,0 km/h
19.10.2018 03:00 9,7 C 81 % 1019,4 hPa 0,0 l/m 0,1 km/h N 6,6 C 9,7 C 2,4 km/h
19.10.2018 04:00 10,2 C 81 % 1019,5 hPa 0,0 l/m 0,1 km/h N 7,2 C 10,2 C 2,0 km/h
19.10.2018 05:00 11,3 C 82 % 1019,8 hPa 0,0 l/m 2,2 km/h N 8,2 C 11,3 C 8,9 km/h
19.10.2018 06:00 11,4 C 81 % 1020,0 hPa 0,0 l/m 1,3 km/h N 8,2 C 11,4 C 7,2 km/h
19.10.2018 07:00 11,3 C 80 % 1020,3 hPa 0,0 l/m 1,1 km/h N 8,0 C 11,3 C 7,3 km/h
19.10.2018 08:00 12,0 C 80 % 1020,9 hPa 0,0 l/m 4,4 km/h N 8,7 C 12,0 C 12,9 km/h
19.10.2018 09:00 13,2 C 80 % 1021,3 hPa 0,0 l/m 4,8 km/h N 9,8 C 13,2 C 14,5 km/h
19.10.2018 10:00 14,2 C 78 % 1021,6 hPa 0,0 l/m 6,7 km/h N 10,4 C 14,0 C 18,1 km/h
19.10.2018 11:00 15,3 C 75 % 1021,6 hPa 0,0 l/m 6,0 km/h N 11,0 C 15,3 C 17,3 km/h
19.10.2018 12:00 16,5 C 72 % 1021,4 hPa 0,0 l/m 6,4 km/h N 11,4 C 16,3 C 19,3 km/h
19.10.2018 13:00 17,0 C 70 % 1021,2 hPa 0,0 l/m 5,6 km/h N 11,5 C 17,0 C 15,3 km/h
19.10.2018 14:00 17,4 C 69 % 1020,7 hPa 0,0 l/m 5,1 km/h N 11,7 C 17,4 C 16,1 km/h
19.10.2018 15:00 17,8 C 67 % 1020,4 hPa 0,0 l/m 4,0 km/h N 11,6 C 17,8 C 14,9 km/h
19.10.2018 16:00 17,7 C 66 % 1020,4 hPa 0,0 l/m 3,5 km/h N 11,2 C 17,7 C 15,7 km/h
19.10.2018 17:00 17,2 C 67 % 1020,5 hPa 0,0 l/m 1,3 km/h N 10,9 C 17,2 C 8,1 km/h
19.10.2018 18:00 16,0 C 70 % 1020,9 hPa 0,0 l/m 0,4 km/h N 10,6 C 16,0 C 5,6 km/h
19.10.2018 19:00 15,3 C 73 % 1021,4 hPa 0,0 l/m 1,7 km/h N 10,5 C 15,3 C 9,2 km/h
19.10.2018 20:00 14,3 C 76 % 1021,8 hPa 0,0 l/m 1,0 km/h N 10,1 C 14,3 C 7,2 km/h
19.10.2018 21:00 13,6 C 78 % 1022,2 hPa 0,0 l/m 1,1 km/h N 9,8 C 13,6 C 7,2 km/h
19.10.2018 22:00 13,0 C 79 % 1022,5 hPa 0,0 l/m 1,2 km/h N 9,4 C 13,0 C 7,2 km/h
19.10.2018 23:00 12,5 C 79 % 1022,9 hPa 0,0 l/m 1,3 km/h N 9,0 C 12,5 C 7,6 km/h
20.10.2018 00:00 12,0 C 80 % 1023,2 hPa 0,0 l/m 1,7 km/h N 8,6 C 12,0 C 8,0 km/h
20.10.2018 01:00 11,5 C 81 % 1023,4 hPa 0,0 l/m 1,8 km/h N 8,3 C 11,5 C 8,4 km/h
20.10.2018 02:00 11,3 C 80 % 1023,5 hPa 0,0 l/m 1,6 km/h N 8,0 C 11,3 C 7,2 km/h
20.10.2018 03:00 10,8 C 81 % 1023,3 hPa 0,0 l/m 0,1 km/h N 7,6 C 10,8 C 1,6 km/h
20.10.2018 04:00 10,4 C 80 % 1023,3 hPa 0,0 l/m 0,9 km/h N 7,1 C 10,4 C 3,2 km/h
20.10.2018 05:00 10,0 C 80 % 1023,8 hPa 0,0 l/m 1,5 km/h N 6,7 C 10,0 C 6,4 km/h
20.10.2018 06:00 10,8 C 80 % 1024,0 hPa 0,0 l/m 1,6 km/h N 7,5 C 10,8 C 7,2 km/h
20.10.2018 07:00 10,6 C 80 % 1024,5 hPa 0,0 l/m 1,4 km/h N 7,3 C 10,6 C 6,4 km/h
20.10.2018 08:00 11,1 C 80 % 1025,0 hPa 0,0 l/m 2,7 km/h N 7,7 C 11,1 C 9,6 km/h
20.10.2018 09:00 12,0 C 80 % 1025,4 hPa 0,0 l/m 2,9 km/h N 8,7 C 12,0 C 9,3 km/h
20.10.2018 10:00 12,9 C 80 % 1025,6 hPa 0,0 l/m 4,7 km/h N 9,5 C 12,9 C 17,3 km/h
20.10.2018 11:00 14,1 C 79 % 1025,4 hPa 0,0 l/m 4,8 km/h N 10,4 C 14,1 C 17,7 km/h
20.10.2018 12:00 16,2 C 72 % 1025,2 hPa 0,0 l/m 6,5 km/h N 11,1 C 16,1 C 17,7 km/h
20.10.2018 13:00 16,4 C 68 % 1024,8 hPa 0,0 l/m 8,7 km/h N 10,5 C 15,3 C 20,5 km/h
20.10.2018 14:00 16,7 C 69 % 1024,5 hPa 0,0 l/m 5,6 km/h N 10,9 C 16,6 C 22,1 km/h
20.10.2018 15:00 16,4 C 69 % 1024,3 hPa 0,0 l/m 6,7 km/h N 10,7 C 16,2 C 19,7 km/h
20.10.2018 16:00 15,4 C 72 % 1024,3 hPa 0,0 l/m 5,3 km/h N 10,5 C 15,4 C 17,7 km/h
20.10.2018 17:00 15,0 C 74 % 1024,2 hPa 0,0 l/m 4,2 km/h N 10,4 C 15,0 C 14,1 km/h
20.10.2018 18:00 14,5 C 76 % 1024,4 hPa 0,0 l/m 5,8 km/h N 10,2 C 14,4 C 16,5 km/h
20.10.2018 19:00 13,9 C 77 % 1024,8 hPa 0,0 l/m 2,0 km/h N 9,9 C 13,9 C 11,3 km/h
20.10.2018 20:00 13,5 C 77 % 1025,0 hPa 0,0 l/m 1,3 km/h N 9,6 C 13,5 C 8,5 km/h
20.10.2018 21:00 13,3 C 76 % 1025,3 hPa 0,0 l/m 1,9 km/h N 9,2 C 13,3 C 10,8 km/h
20.10.2018 22:00 12,7 C 72 % 1025,6 hPa 0,0 l/m 4,0 km/h N 7,8 C 12,7 C 16,9 km/h
20.10.2018 23:00 12,0 C 67 % 1025,8 hPa 0,0 l/m 4,2 km/h N 6,0 C 12,0 C 17,3 km/h
21.10.2018 00:00 11,1 C 65 % 1025,9 hPa 0,0 l/m 5,7 km/h N 4,7 C 11,1 C 18,9 km/h
21.10.2018 01:00 10,0 C 65 % 1025,9 hPa 0,0 l/m 4,9 km/h N 3,7 C 10,0 C 19,7 km/h
21.10.2018 02:00 9,0 C 63 % 1026,1 hPa 0,0 l/m 5,9 km/h N 2,3 C 8,9 C 20,9 km/h
21.10.2018 03:00 7,9 C 65 % 1026,4 hPa 0,0 l/m 2,9 km/h N 1,7 C 7,9 C 16,5 km/h
21.10.2018 04:00 7,3 C 67 % 1026,3 hPa 0,0 l/m 1,1 km/h N 1,6 C 7,3 C 8,9 km/h
21.10.2018 05:00 7,5 C 69 % 1026,1 hPa 0,0 l/m 3,4 km/h N 2,2 C 7,5 C 13,7 km/h
21.10.2018 06:00 8,5 C 66 % 1025,8 hPa 0,0 l/m 3,8 km/h N 2,6 C 8,5 C 15,7 km/h
21.10.2018 07:00 8,7 C 66 % 1025,6 hPa 0,0 l/m 3,1 km/h N 2,7 C 8,7 C 13,7 km/h
21.10.2018 08:00 8,8 C 70 % 1026,1 hPa 0,0 l/m 2,2 km/h N 3,5 C 8,8 C 12,5 km/h
21.10.2018 09:00 8,9 C 74 % 1026,4 hPa 0,0 l/m 2,5 km/h N 4,5 C 8,9 C 11,3 km/h
21.10.2018 10:00 8,7 C 79 % 1026,6 hPa 0,0 l/m 2,9 km/h N 5,2 C 8,7 C 11,7 km/h
21.10.2018 11:00 8,9 C 80 % 1026,9 hPa 0,3 l/m 2,1 km/h N 5,5 C 8,9 C 14,1 km/h
21.10.2018 12:00 10,4 C 77 % 1026,3 hPa 0,0 l/m 5,4 km/h N 6,5 C 10,4 C 18,5 km/h
21.10.2018 13:00 10,6 C 71 % 1025,9 hPa 0,0 l/m 4,2 km/h N 5,7 C 10,6 C 16,5 km/h
21.10.2018 14:00 10,8 C 68 % 1025,7 hPa 0,0 l/m 3,5 km/h N 5,2 C 10,8 C 16,5 km/h
21.10.2018 15:00 11,0 C 67 % 1025,8 hPa 0,0 l/m 2,7 km/h N 5,1 C 11,0 C 15,3 km/h
21.10.2018 16:00 11,0 C 67 % 1025,9 hPa 0,0 l/m 3,6 km/h N 5,0 C 11,0 C 18,1 km/h
21.10.2018 17:00 10,7 C 69 % 1025,9 hPa 0,0 l/m 2,6 km/h N 5,1 C 10,7 C 16,5 km/h
21.10.2018 18:00 10,3 C 70 % 1026,3 hPa 0,0 l/m 1,1 km/h N 5,1 C 10,3 C 11,6 km/h
21.10.2018 19:00 10,1 C 72 % 1026,8 hPa 0,0 l/m 0,9 km/h N 5,3 C 10,1 C 9,7 km/h
21.10.2018 20:00 9,6 C 74 % 1027,1 hPa 0,0 l/m 0,4 km/h N 5,2 C 9,6 C 7,6 km/h
21.10.2018 21:00 9,7 C 76 % 1027,3 hPa 0,0 l/m 0,8 km/h N 5,5 C 9,7 C 8,4 km/h
21.10.2018 22:00 9,6 C 75 % 1027,3 hPa 0,0 l/m 0,4 km/h N 5,4 C 9,6 C 5,6 km/h
21.10.2018 23:00 9,4 C 75 % 1027,2 hPa 0,0 l/m 0,1 km/h N 5,2 C 9,4 C 4,4 km/h
Min-Datum _ 15.10.18 15.10.18 18.10.18 - 15.10.18 - 21.10.18 15.10.18 15.10.18
_ Min-Zeit 03:15 11:30 14:45 - 00:00 - 04:15 03:15 00:00
Minimum _ 6,4 C 44 % 1017,2 hPa - 0,0 km/h - 1,4 C 6,4 C 0,0 km/h
Max-Datum _ 16.10.18 17.10.18 21.10.18 17.10.18 20.10.18 - 18.10.18 16.10.18 21.10.18
_ Max-Zeit 15:00 08:45 21:30 18:15 13:15 - 14:15 15:00 01:15
Maximum _ 21,5 C 82 % 1027,4 hPa 0,3 l/m 9,4 km/h
N
- 13,9 C 21,5 C 27,4 km/h
N
Durchschnitt _ 12,6 C 73 % 1021,4 hPa #1,3 l/m 1,4 km/h N 7,8 C 12,6 C 6,4 km/h